Time;durP1;ratioP1;P1;durP2;ratioP2;P2;SDS_P1;SDS_P2;PMS_P1;PMS_P2;Temp;Humidity;BMP_temperature;BMP_pressure;BME280_temperature;BME280_humidity;BME280_pressure;Samples;Min_cycle;Max_cycle;Signal;HPM_P1;HPM_P2
2022/10/27 00:00:49;;;;;;;1.53;1.00;;;14.80;98.20;;;;;;4980980;28;20559;-79
2022/10/27 00:03:18;;;;;;;1.53;1.00;;;14.80;98.20;;;;;;5004479;28;20481;-78
2022/10/27 00:05:48;;;;;;;1.57;1.00;;;14.80;98.20;;;;;;4991229;28;20465;-78
2022/10/27 00:08:16;;;;;;;1.60;1.00;;;14.70;98.20;;;;;;4982277;28;20484;-78
2022/10/27 00:10:44;;;;;;;1.60;1.00;;;14.80;98.20;;;;;;5011386;28;20491;-78
2022/10/27 00:13:12;;;;;;;1.50;1.00;;;14.70;98.20;;;;;;4981118;28;20571;-79
2022/10/27 00:15:41;;;;;;;1.57;1.00;;;14.70;98.20;;;;;;5004942;28;20882;-79
2022/10/27 00:18:10;;;;;;;1.60;1.00;;;14.70;98.20;;;;;;4996364;28;20469;-78
2022/10/27 00:20:38;;;;;;;1.53;1.00;;;14.70;98.20;;;;;;4997587;28;20468;-79
2022/10/27 00:23:06;;;;;;;1.60;1.00;;;14.60;98.20;;;;;;4997969;28;20487;-79
2022/10/27 00:25:33;;;;;;;1.53;1.00;;;14.60;98.20;;;;;;5009696;28;20728;-79
2022/10/27 00:28:01;;;;;;;1.60;1.07;;;14.60;98.20;;;;;;4988514;28;20641;-79
2022/10/27 00:30:28;;;;;;;1.60;1.00;;;14.60;98.20;;;;;;5012113;28;20477;-79
2022/10/27 00:32:56;;;;;;;1.57;1.00;;;14.60;98.20;;;;;;4998458;28;20532;-79
2022/10/27 00:35:24;;;;;;;1.57;0.90;;;14.60;98.20;;;;;;5010324;28;20989;-79
2022/10/27 00:37:51;;;;;;;1.60;1.10;;;14.60;98.20;;;;;;4990132;28;20564;-79
2022/10/27 00:40:18;;;;;;;1.60;1.10;;;14.50;98.20;;;;;;5007753;28;20510;-79
2022/10/27 00:42:45;;;;;;;1.50;1.00;;;14.50;98.20;;;;;;4996095;28;20493;-78
2022/10/27 00:45:13;;;;;;;1.60;1.00;;;14.50;98.20;;;;;;5010384;28;20467;-79
2022/10/27 00:47:40;;;;;;;1.60;1.00;;;14.50;98.20;;;;;;4982515;28;20962;-79
2022/10/27 00:50:14;;;;;;;1.60;1.00;;;14.50;98.20;;;;;;4998965;28;20503;-79
2022/10/27 00:52:45;;;;;;;1.57;1.00;;;14.50;98.20;;;;;;4995515;28;20543;-79
2022/10/27 00:55:16;;;;;;;1.53;1.00;;;14.50;98.20;;;;;;4990994;28;20496;-79
2022/10/27 00:57:46;;;;;;;1.60;1.00;;;14.50;98.20;;;;;;4980146;28;20523;-79
2022/10/27 01:00:15;;;;;;;1.50;1.00;;;14.50;98.20;;;;;;4990886;28;20479;-78
2022/10/27 01:02:42;;;;;;;1.60;1.00;;;14.50;98.20;;;;;;4994450;28;20484;-80
2022/10/27 01:05:17;;;;;;;1.60;1.00;;;14.50;98.20;;;;;;5010357;28;20459;-80
2022/10/27 01:07:46;;;;;;;1.60;1.00;;;14.50;98.20;;;;;;4982923;28;20508;-80
2022/10/27 01:10:14;;;;;;;1.53;1.00;;;14.50;98.20;;;;;;5010988;28;20460;-80
2022/10/27 01:12:48;;;;;;;1.53;1.00;;;14.50;98.20;;;;;;4998321;28;20559;-80
2022/10/27 01:15:16;;;;;;;1.57;1.00;;;14.40;98.20;;;;;;5010738;28;20457;-80
2022/10/27 01:17:51;;;;;;;1.60;1.10;;;14.40;98.20;;;;;;4998515;28;20507;-79
2022/10/27 01:20:46;;;;;;;1.60;1.10;;;14.40;98.20;;;;;;4996456;28;20621;-79
2022/10/27 01:23:26;;;;;;;1.57;1.00;;;14.40;98.20;;;;;;4981406;28;20480;-80
2022/10/27 01:26:40;;;;;;;1.60;1.10;;;14.40;98.20;;;;;;4999535;28;20460;-80
2022/10/27 01:29:45;;;;;;;1.60;1.00;;;14.40;98.20;;;;;;4955683;28;20496;-80
2022/10/27 01:32:27;;;;;;;1.60;1.10;;;14.40;98.20;;;;;;4988512;28;20506;-80
2022/10/27 01:35:01;;;;;;;1.57;1.10;;;14.30;98.20;;;;;;4998540;28;20456;-79
2022/10/27 01:37:36;;;;;;;1.60;1.10;;;14.30;98.20;;;;;;4976173;28;20479;-80
2022/10/27 01:40:10;;;;;;;1.50;1.00;;;14.30;98.20;;;;;;4999839;28;20468;-80
2022/10/27 01:42:46;;;;;;;1.60;1.00;;;14.30;98.20;;;;;;4988383;28;20492;-80
2022/10/27 01:45:15;;;;;;;1.57;1.00;;;14.30;98.20;;;;;;4994702;28;20475;-80
2022/10/27 01:47:44;;;;;;;1.50;1.00;;;14.30;98.20;;;;;;4998633;28;20483;-80
2022/10/27 01:50:11;;;;;;;1.60;1.00;;;14.30;98.20;;;;;;5005564;28;20460;-80
2022/10/27 01:52:44;;;;;;;1.60;1.00;;;14.40;98.20;;;;;;5000457;28;21016;-80
2022/10/27 01:55:19;;;;;;;1.53;1.00;;;14.40;98.20;;;;;;5014314;28;20463;-80
2022/10/27 01:58:13;;;;;;;1.57;1.00;;;14.40;98.20;;;;;;5002247;28;20479;-80
2022/10/27 02:00:53;;;;;;;1.60;1.00;;;14.40;98.20;;;;;;5013616;28;20550;-80
2022/10/27 02:03:32;;;;;;;1.53;1.00;;;14.40;98.20;;;;;;4982651;28;20820;-80
2022/10/27 02:06:07;;;;;;;1.80;1.60;;;14.40;98.20;;;;;;4983386;28;20460;-80
2022/10/27 02:08:41;;;;;;;1.60;1.00;;;14.40;98.20;;;;;;4986997;28;20736;-80
2022/10/27 02:11:10;;;;;;;1.57;1.00;;;14.40;98.20;;;;;;5002165;28;20491;-80
2022/10/27 02:13:39;;;;;;;1.60;1.20;;;14.40;98.20;;;;;;5011796;28;20463;-80
2022/10/27 02:16:10;;;;;;;1.53;1.00;;;14.40;98.20;;;;;;5002792;28;20547;-81
2022/10/27 02:18:42;;;;;;;1.50;1.00;;;14.40;98.20;;;;;;5009552;28;20471;-80
2022/10/27 02:21:11;;;;;;;1.57;1.00;;;14.40;98.20;;;;;;4997343;28;20499;-80
2022/10/27 02:23:39;;;;;;;1.53;1.00;;;14.30;98.20;;;;;;4997066;28;20895;-80
2022/10/27 02:26:14;;;;;;;1.60;1.00;;;14.40;98.20;;;;;;4985235;28;20469;-80
2022/10/27 02:28:47;;;;;;;1.57;1.00;;;14.40;98.20;;;;;;5011297;28;20870;-80
2022/10/27 02:31:17;;;;;;;1.57;1.00;;;14.40;98.20;;;;;;5001888;28;20484;-80
2022/10/27 02:33:45;;;;;;;1.53;1.00;;;14.30;98.20;;;;;;5011772;28;20467;-80
2022/10/27 02:36:13;;;;;;;1.60;1.03;;;14.30;98.20;;;;;;5003270;28;21044;-81
2022/10/27 02:38:40;;;;;;;1.57;1.00;;;14.30;98.20;;;;;;5011405;28;20476;-80
2022/10/27 02:41:07;;;;;;;1.60;1.00;;;14.30;98.20;;;;;;4990410;28;20477;-80
2022/10/27 02:43:34;;;;;;;1.57;1.10;;;14.30;98.20;;;;;;4995115;28;20470;-81
2022/10/27 02:46:01;;;;;;;1.60;1.00;;;14.30;98.20;;;;;;4983880;28;20465;-80
2022/10/27 02:48:29;;;;;;;1.57;1.00;;;14.30;98.20;;;;;;5008575;28;20875;-80
2022/10/27 02:50:57;;;;;;;1.60;1.10;;;14.30;98.20;;;;;;4991831;28;20551;-80
2022/10/27 02:53:24;;;;;;;1.50;1.00;;;14.30;98.20;;;;;;5010373;28;20456;-80
2022/10/27 02:55:51;;;;;;;1.53;1.00;;;14.20;98.20;;;;;;5004349;28;20464;-81
2022/10/27 02:58:19;;;;;;;1.57;1.00;;;14.20;98.20;;;;;;5009278;28;20569;-80
2022/10/27 03:00:46;;;;;;;1.60;1.20;;;14.20;98.20;;;;;;4999903;28;20515;-80
2022/10/27 03:03:13;;;;;;;1.53;1.00;;;14.20;98.20;;;;;;4989494;28;20481;-81
2022/10/27 03:05:45;;;;;;;1.50;1.00;;;14.20;98.20;;;;;;4997802;28;21016;-81
2022/10/27 03:08:14;;;;;;;1.60;1.10;;;14.20;98.20;;;;;;4982832;28;20971;-80
2022/10/27 03:10:41;;;;;;;1.57;0.97;;;14.20;98.20;;;;;;5011629;28;20503;-80
2022/10/27 03:13:08;;;;;;;1.53;1.00;;;14.20;98.20;;;;;;4999080;28;20494;-80
2022/10/27 03:15:35;;;;;;;3.93;3.53;;;14.20;98.20;;;;;;5013621;28;20461;-81
2022/10/27 03:18:02;;;;;;;1.53;1.00;;;14.10;98.20;;;;;;5000371;28;20574;-82
2022/10/27 03:20:29;;;;;;;1.60;1.20;;;14.10;98.20;;;;;;5003854;28;20598;-81
2022/10/27 03:22:56;;;;;;;2.10;1.53;;;14.10;98.20;;;;;;5001731;28;20484;-82
2022/10/27 03:25:25;;;;;;;1.57;1.07;;;14.10;98.20;;;;;;5015593;28;20542;-80
2022/10/27 03:27:52;;;;;;;1.57;1.00;;;14.10;98.20;;;;;;5005376;28;20492;-80
2022/10/27 03:30:20;;;;;;;1.57;1.00;;;14.10;98.20;;;;;;5013640;28;20572;-84
2022/10/27 03:32:48;;;;;;;1.57;1.00;;;14.00;98.20;;;;;;5004631;28;20494;-82
2022/10/27 03:35:16;;;;;;;1.60;1.00;;;14.00;98.20;;;;;;5016205;28;20968;-82
2022/10/27 03:37:43;;;;;;;1.60;1.00;;;14.00;98.20;;;;;;5001488;28;21116;-84
2022/10/27 03:40:11;;;;;;;1.60;1.00;;;14.00;98.20;;;;;;5009147;28;20467;-82
2022/10/27 03:42:42;;;;;;;2.70;2.43;;;14.00;98.20;;;;;;4997186;28;21144;-82
2022/10/27 03:45:10;;;;;;;1.60;1.00;;;14.00;98.20;;;;;;5012681;28;20460;-83
2022/10/27 03:47:37;;;;;;;1.50;1.00;;;14.00;98.20;;;;;;4999051;28;20491;-80
2022/10/27 03:50:06;;;;;;;1.57;1.00;;;14.00;98.20;;;;;;5008706;28;20489;-81
2022/10/27 03:52:33;;;;;;;1.60;1.00;;;14.00;98.20;;;;;;4997573;28;20520;-80
2022/10/27 03:55:00;;;;;;;1.60;1.10;;;14.00;98.20;;;;;;5011840;28;20464;-80
2022/10/27 03:57:27;;;;;;;1.60;1.10;;;14.00;98.20;;;;;;4999601;28;20527;-80
2022/10/27 03:59:56;;;;;;;1.60;1.10;;;14.00;98.20;;;;;;5010681;28;20462;-81
2022/10/27 04:02:23;;;;;;;1.57;1.00;;;14.00;98.20;;;;;;4999434;28;21055;-80
2022/10/27 04:04:50;;;;;;;1.57;1.00;;;13.90;98.20;;;;;;5010362;28;20467;-82
2022/10/27 04:07:17;;;;;;;1.57;1.00;;;13.90;98.20;;;;;;4995450;28;20484;-80
2022/10/27 04:09:44;;;;;;;1.60;1.00;;;13.90;98.20;;;;;;4997724;28;20484;-83
2022/10/27 04:12:11;;;;;;;1.60;1.10;;;13.90;98.20;;;;;;4991145;28;21096;-82
2022/10/27 04:14:39;;;;;;;1.53;1.00;;;13.90;98.20;;;;;;5011039;28;20522;-80
2022/10/27 04:17:07;;;;;;;1.53;1.00;;;13.90;98.20;;;;;;4995913;28;20560;-80
2022/10/27 04:19:40;;;;;;;1.50;1.00;;;13.90;98.20;;;;;;5004309;28;20471;-81
2022/10/27 04:22:15;;;;;;;1.60;1.10;;;13.90;98.20;;;;;;4996080;28;20488;-79
2022/10/27 04:24:42;;;;;;;1.57;1.00;;;13.90;98.20;;;;;;5010970;28;20546;-81
2022/10/27 04:27:10;;;;;;;1.60;1.00;;;13.90;98.20;;;;;;5000785;28;20584;-82
2022/10/27 04:29:37;;;;;;;1.57;0.90;;;13.90;98.20;;;;;;4997092;28;20485;-81
2022/10/27 04:32:04;;;;;;;1.57;1.00;;;13.90;98.20;;;;;;4987196;28;20548;-80
2022/10/27 04:35:11;;;;;;;1.97;1.20;;;13.90;98.20;;;;;;5001275;28;20457;-82
2022/10/27 04:37:38;;;;;;;1.50;1.00;;;13.90;98.20;;;;;;5005041;28;20539;-80
2022/10/27 04:40:07;;;;;;;1.57;1.07;;;13.90;98.20;;;;;;4992369;28;20465;-81
2022/10/27 04:42:34;;;;;;;1.60;1.00;;;13.90;98.20;;;;;;4993320;28;20488;-81
2022/10/27 04:45:01;;;;;;;1.60;1.00;;;13.90;98.20;;;;;;4996041;28;20512;-79
2022/10/27 04:47:28;;;;;;;1.60;1.00;;;13.90;98.20;;;;;;4988068;28;20477;-80
2022/10/27 04:49:56;;;;;;;1.60;1.10;;;13.90;98.20;;;;;;4996249;28;20487;-78
2022/10/27 04:52:23;;;;;;;1.60;1.00;;;13.90;98.20;;;;;;4995544;28;20492;-80
2022/10/27 04:54:59;;;;;;;1.57;1.00;;;13.90;98.20;;;;;;4995734;28;20469;-81
2022/10/27 04:57:32;;;;;;;1.53;1.00;;;13.90;98.20;;;;;;4980243;28;20485;-80
2022/10/27 05:00:00;;;;;;;1.50;0.90;;;13.90;98.20;;;;;;4996909;28;20542;-80
2022/10/27 05:02:27;;;;;;;1.57;1.00;;;14.00;98.20;;;;;;4987864;23;21002;-82
2022/10/27 05:04:54;;;;;;;1.60;1.00;;;14.00;98.20;;;;;;5001232;28;21140;-81
2022/10/27 05:07:27;;;;;;;1.60;1.00;;;13.90;98.20;;;;;;4983900;28;20485;-81
2022/10/27 05:09:54;;;;;;;1.53;1.00;;;14.00;98.20;;;;;;5006012;28;20492;-81
2022/10/27 05:12:30;;;;;;;1.53;1.00;;;14.00;98.20;;;;;;4999604;28;20510;-83
2022/10/27 05:15:00;;;;;;;1.60;1.00;;;14.00;98.20;;;;;;5010576;28;20455;-81
2022/10/27 05:17:41;;;;;;;1.60;1.10;;;14.00;98.20;;;;;;4997694;28;20562;-80
2022/10/27 05:20:09;;;;;;;1.60;1.20;;;14.00;98.20;;;;;;5010151;28;20997;-81
2022/10/27 05:22:41;;;;;;;1.60;1.00;;;14.10;98.20;;;;;;5001262;28;20487;-83
2022/10/27 05:25:10;;;;;;;1.50;1.00;;;14.10;98.20;;;;;;5014908;28;20462;-81
2022/10/27 05:27:41;;;;;;;1.57;1.00;;;14.00;98.20;;;;;;4986345;28;20611;-81
2022/10/27 05:30:10;;;;;;;1.60;1.00;;;14.10;98.20;;;;;;5013044;28;20551;-82
2022/10/27 05:32:37;;;;;;;1.53;1.00;;;14.10;98.20;;;;;;5001194;28;20480;-81
2022/10/27 05:35:05;;;;;;;1.57;1.00;;;14.00;98.20;;;;;;5013578;28;20854;-79
2022/10/27 05:38:09;;;;;;;1.60;1.10;;;14.10;98.20;;;;;;5012037;28;20476;-81
2022/10/27 05:40:36;;;;;;;1.50;1.00;;;14.10;98.20;;;;;;5012554;28;20487;-80
2022/10/27 05:43:04;;;;;;;1.60;1.20;;;14.10;98.20;;;;;;5002801;28;20509;-82
2022/10/27 05:45:33;;;;;;;1.57;1.00;;;14.00;98.20;;;;;;5014059;28;20472;-80
2022/10/27 05:48:01;;;;;;;1.60;1.10;;;14.10;98.20;;;;;;5002467;28;20853;-82
2022/10/27 05:50:31;;;;;;;1.57;1.00;;;14.10;98.20;;;;;;5010319;28;20526;-80
2022/10/27 05:53:00;;;;;;;1.60;1.10;;;14.10;98.20;;;;;;4999412;28;21042;-81
2022/10/27 05:55:31;;;;;;;1.53;1.00;;;14.10;98.20;;;;;;5009839;28;20467;-80
2022/10/27 05:58:00;;;;;;;1.57;1.00;;;14.00;98.20;;;;;;5003164;28;20542;-81
2022/10/27 06:00:30;;;;;;;1.50;1.00;;;14.00;98.20;;;;;;5013010;28;20861;-80
2022/10/27 06:03:05;;;;;;;1.53;1.00;;;14.00;98.20;;;;;;5002045;28;20546;-80
2022/10/27 06:05:37;;;;;;;1.60;1.00;;;14.00;98.20;;;;;;5013267;28;20519;-79
2022/10/27 06:08:06;;;;;;;1.53;1.00;;;14.00;98.20;;;;;;4999694;28;20547;-81
2022/10/27 06:10:34;;;;;;;1.60;1.07;;;14.00;98.20;;;;;;5013140;28;20532;-82
2022/10/27 06:13:05;;;;;;;1.53;1.00;;;14.00;98.20;;;;;;5002203;28;20653;-81
2022/10/27 06:15:34;;;;;;;2.00;1.67;;;14.00;98.20;;;;;;5012226;28;20490;-81
2022/10/27 06:18:02;;;;;;;1.57;1.00;;;14.10;98.20;;;;;;5005665;28;21001;-80
2022/10/27 06:20:33;;;;;;;1.57;1.03;;;14.10;98.20;;;;;;5016855;28;20453;-81
2022/10/27 06:23:25;;;;;;;1.57;1.00;;;14.10;98.20;;;;;;4997903;28;20524;-84
2022/10/27 06:25:54;;;;;;;1.60;1.03;;;14.10;98.20;;;;;;4998918;28;20464;-80
2022/10/27 06:28:25;;;;;;;1.50;1.00;;;14.10;98.20;;;;;;5000776;28;20468;-86
2022/10/27 06:33:52;;;;;;;1.57;1.00;;;14.10;98.20;;;;;;4959612;28;20525;-83
2022/10/27 06:39:57;;;;;;;1.57;1.00;;;14.10;98.20;;;;;;4991887;28;20710;-84
2022/10/27 06:42:25;;;;;;;1.57;1.00;;;14.10;98.20;;;;;;4988551;28;20500;-83
2022/10/27 06:44:53;;;;;;;1.60;1.00;;;14.10;98.20;;;;;;5010343;28;20887;-82
2022/10/27 06:47:24;;;;;;;1.57;1.00;;;14.10;98.20;;;;;;5001856;28;20480;-82
2022/10/27 06:49:52;;;;;;;1.57;1.00;;;14.20;98.20;;;;;;5010546;28;21012;-83
2022/10/27 06:55:18;;;;;;;1.57;1.00;;;14.20;98.20;;;;;;5012037;28;20815;-83
2022/10/27 06:57:46;;;;;;;2.37;2.17;;;14.20;98.20;;;;;;5001693;28;20503;-82
2022/10/27 07:00:15;;;;;;;1.57;1.00;;;14.20;98.20;;;;;;5014867;28;20468;-84
2022/10/27 07:02:51;;;;;;;1.53;1.00;;;14.30;98.20;;;;;;5003137;28;21175;-83
2022/10/27 07:05:45;;;;;;;;;;;;;;;;;;;;;
2022/10/27 07:08:31;;;;;;;1.60;1.00;;;14.30;98.20;;;;;;4999601;28;20558;-84
2022/10/27 07:13:43;;;;;;;1.50;1.00;;;14.40;98.20;;;;;;5034942;23;20491;-83
2022/10/27 07:16:13;;;;;;;1.57;1.00;;;14.50;98.20;;;;;;5023098;28;20236;-81
2022/10/27 07:18:54;;;;;;;1.57;1.00;;;14.50;98.20;;;;;;5033713;28;20463;-82
2022/10/27 07:25:15;;;;;;;1.60;1.00;;;14.60;98.20;;;;;;4938304;28;20554;-84
2022/10/27 07:28:05;;;;;;;;;;;;;;;;;;;;;
2022/10/27 07:30:47;;;;;;;1.60;1.10;;;14.80;98.20;;;;;;4988222;28;20489;-83
2022/10/27 07:33:17;;;;;;;1.57;1.00;;;14.90;98.20;;;;;;5001801;28;20483;-86
2022/10/27 07:36:04;;;;;;;1.53;1.00;;;15.00;98.20;;;;;;5032585;28;20463;-89
2022/10/27 07:38:31;;;;;;;1.57;1.00;;;15.10;98.20;;;;;;4990226;28;20995;-84
2022/10/27 07:41:10;;;;;;;1.60;1.00;;;15.20;98.20;;;;;;5020217;28;20804;-84
2022/10/27 07:43:38;;;;;;;1.60;1.00;;;15.30;98.20;;;;;;5033003;28;20467;-82
2022/10/27 07:46:10;;;;;;;1.60;1.03;;;15.40;98.20;;;;;;5025992;28;21038;-84
2022/10/27 07:48:37;;;;;;;1.60;1.00;;;15.50;98.20;;;;;;5029343;28;20475;-83
2022/10/27 07:51:15;;;;;;;1.60;1.00;;;15.60;98.20;;;;;;5020181;28;20483;-83
2022/10/27 07:53:50;;;;;;;1.60;1.10;;;15.60;98.20;;;;;;5027817;28;20838;-83
2022/10/27 07:56:35;;;;;;;1.60;0.90;;;15.70;98.20;;;;;;5016198;28;20538;-82
2022/10/27 07:59:16;;;;;;;1.90;1.50;;;15.80;98.20;;;;;;5023335;28;21022;-83
2022/10/27 08:01:48;;;;;;;1.70;1.30;;;15.90;98.20;;;;;;5020733;28;21016;-81
2022/10/27 08:10:37;;;;;;;1.60;0.97;;;16.20;98.20;;;;;;4958820;28;20564;-80
2022/10/27 08:13:05;;;;;;;1.60;0.90;;;16.20;98.20;;;;;;4961038;28;20928;-80
2022/10/27 08:16:00;;;;;;;;;;;;;;;;;;;;;
2022/10/27 08:18:30;;;;;;;1.60;0.90;;;16.40;98.20;;;;;;4977897;28;20491;-82
2022/10/27 08:20:58;;;;;;;1.70;1.10;;;16.50;98.20;;;;;;5017655;28;20480;-82
2022/10/27 08:26:54;;;;;;;;;;;;;;;;;;;;;
2022/10/27 08:29:22;;;;;;;1.57;1.00;;;16.80;98.20;;;;;;5029629;28;20897;-81
2022/10/27 08:31:49;;;;;;;1.60;1.00;;;16.90;98.20;;;;;;5017742;28;20876;-80
2022/10/27 08:34:21;;;;;;;1.60;1.00;;;17.10;98.20;;;;;;5029916;28;20459;-79
2022/10/27 08:36:49;;;;;;;1.60;1.00;;;17.20;98.20;;;;;;5020867;28;20484;-79
2022/10/27 08:39:17;;;;;;;1.60;0.93;;;17.30;98.20;;;;;;5030654;28;20532;-79
2022/10/27 08:41:57;;;;;;;1.60;0.90;;;17.40;98.20;;;;;;5020391;28;20486;-81
2022/10/27 08:44:28;;;;;;;1.60;0.90;;;17.50;98.20;;;;;;5027473;28;20474;-80
2022/10/27 08:47:00;;;;;;;1.70;1.20;;;17.60;98.20;;;;;;5007951;28;20950;-79
2022/10/27 08:49:40;;;;;;;1.63;1.10;;;17.60;98.20;;;;;;5022241;28;20478;-77
2022/10/27 08:52:15;;;;;;;1.70;1.33;;;17.70;98.20;;;;;;5016228;28;20561;-78
2022/10/27 08:54:46;;;;;;;1.60;0.93;;;17.70;98.20;;;;;;5032017;28;20561;-78
2022/10/27 08:57:20;;;;;;;1.60;0.90;;;17.80;98.20;;;;;;5008573;28;20476;-77
2022/10/27 08:59:48;;;;;;;1.60;1.00;;;17.90;98.20;;;;;;5028250;28;20463;-79
2022/10/27 09:02:33;;;;;;;1.60;0.90;;;18.00;98.20;;;;;;5018312;28;20680;-80
2022/10/27 09:05:20;;;;;;;1.60;0.90;;;18.10;98.20;;;;;;5031570;28;20588;-80
2022/10/27 09:07:56;;;;;;;1.60;1.00;;;18.20;98.20;;;;;;5019261;28;20491;-80
2022/10/27 09:10:41;;;;;;;1.60;0.97;;;18.30;98.20;;;;;;5022421;28;20479;-79
2022/10/27 09:13:20;;;;;;;1.60;1.00;;;18.40;98.20;;;;;;5019008;28;21067;-78
2022/10/27 09:15:49;;;;;;;1.60;0.90;;;18.50;98.20;;;;;;5032510;28;20486;-78
2022/10/27 09:18:25;;;;;;;1.60;1.00;;;18.60;98.20;;;;;;5003471;28;20494;-79
2022/10/27 09:20:59;;;;;;;1.60;1.00;;;18.80;98.20;;;;;;5019144;28;20458;-77
2022/10/27 09:23:31;;;;;;;1.60;0.97;;;18.80;98.20;;;;;;5012115;28;20462;-77
2022/10/27 09:25:59;;;;;;;1.60;1.00;;;19.00;98.20;;;;;;5016468;28;20498;-76
2022/10/27 09:28:33;;;;;;;1.60;0.97;;;19.10;98.20;;;;;;5027716;28;20463;-76
2022/10/27 09:31:02;;;;;;;1.57;0.97;;;19.20;98.20;;;;;;5019386;28;21008;-76
2022/10/27 09:33:32;;;;;;;1.60;0.90;;;19.30;98.20;;;;;;5026079;28;21055;-78
2022/10/27 09:36:07;;;;;;;1.60;0.90;;;19.40;98.20;;;;;;5017310;28;20956;-77
2022/10/27 09:38:36;;;;;;;1.60;0.90;;;19.40;98.20;;;;;;5027415;28;20532;-76
2022/10/27 09:41:03;;;;;;;1.60;0.90;;;19.50;98.20;;;;;;5017654;28;20459;-76
2022/10/27 09:43:31;;;;;;;1.60;1.00;;;19.60;98.20;;;;;;5023781;28;20467;-76
2022/10/27 09:46:05;;;;;;;1.60;0.90;;;19.70;98.20;;;;;;5014907;28;20474;-76
2022/10/27 09:48:34;;;;;;;1.60;1.00;;;19.70;98.20;;;;;;5011247;28;20718;-76
2022/10/27 09:51:12;;;;;;;1.60;1.00;;;19.80;98.20;;;;;;5016446;28;20482;-77
2022/10/27 09:53:43;;;;;;;1.60;0.90;;;19.80;98.20;;;;;;5024385;28;20525;-78
2022/10/27 09:56:16;;;;;;;1.60;0.90;;;19.90;98.20;;;;;;5016463;28;20475;-76
2022/10/27 09:58:56;;;;;;;1.60;0.90;;;20.00;98.20;;;;;;5026465;28;20578;-77
2022/10/27 10:01:24;;;;;;;3.80;1.87;;;20.10;98.20;;;;;;5014709;28;21028;-74
2022/10/27 10:04:00;;;;;;;1.90;1.20;;;20.20;98.20;;;;;;5025847;28;20477;-74
2022/10/27 10:06:35;;;;;;;1.60;1.10;;;20.20;98.20;;;;;;5015434;28;20470;-76
2022/10/27 10:09:25;;;;;;;1.60;0.90;;;20.30;98.20;;;;;;5026742;28;20955;-75
2022/10/27 10:12:18;;;;;;;1.60;0.90;;;20.40;98.20;;;;;;5015447;28;20781;-74
2022/10/27 10:14:45;;;;;;;1.53;0.90;;;20.40;98.20;;;;;;5030246;28;20462;-75
2022/10/27 10:17:25;;;;;;;1.60;1.00;;;20.50;98.20;;;;;;5020106;28;20873;-75
2022/10/27 10:19:56;;;;;;;1.60;0.90;;;20.60;98.20;;;;;;5035222;28;20493;-74
2022/10/27 10:22:32;;;;;;;1.60;0.90;;;20.70;98.20;;;;;;5006213;28;20560;-76
2022/10/27 10:25:07;;;;;;;1.57;0.90;;;20.70;98.20;;;;;;5030449;28;20535;-75
2022/10/27 10:27:37;;;;;;;1.53;0.90;;;20.70;98.20;;;;;;5023323;28;20487;-75
2022/10/27 10:30:18;;;;;;;1.60;0.90;;;20.80;98.20;;;;;;5033351;28;20554;-74
2022/10/27 10:32:49;;;;;;;1.60;0.90;;;20.90;98.20;;;;;;5016219;28;20482;-72
2022/10/27 10:35:43;;;;;;;1.60;0.90;;;21.00;98.20;;;;;;5030000;28;20940;-75
2022/10/27 10:41:06;;;;;;;1.60;0.90;;;21.10;98.20;;;;;;5098984;27;20572;-74
2022/10/27 10:43:38;;;;;;;1.60;0.90;;;21.50;98.20;;;;;;5078541;28;20515;-74
2022/10/27 10:46:08;;;;;;;1.60;0.90;;;21.50;98.20;;;;;;5053326;28;20458;-75
2022/10/27 10:48:40;;;;;;;1.60;0.90;;;21.60;97.80;;;;;;5067406;28;20468;-75
2022/10/27 10:51:09;;;;;;;1.60;0.90;;;21.60;97.50;;;;;;5048836;28;20475;-74
2022/10/27 10:53:41;;;;;;;1.57;0.90;;;21.60;96.90;;;;;;5075953;28;20453;-74
2022/10/27 10:56:23;;;;;;;1.57;0.90;;;21.60;97.30;;;;;;5054714;28;20467;-75
2022/10/27 10:58:55;;;;;;;1.60;0.90;;;21.70;98.00;;;;;;5074608;28;20515;-75
2022/10/27 11:01:23;;;;;;;1.60;0.90;;;21.80;97.80;;;;;;5058877;28;20899;-74
2022/10/27 11:03:55;;;;;;;1.57;0.90;;;21.90;96.80;;;;;;5075291;28;20823;-74
2022/10/27 11:06:24;;;;;;;1.60;0.90;;;21.90;96.40;;;;;;5058401;28;20508;-76
2022/10/27 11:08:59;;;;;;;1.60;0.90;;;21.90;97.10;;;;;;5072226;28;20557;-75
2022/10/27 11:11:33;;;;;;;1.60;0.90;;;22.00;96.50;;;;;;5054582;28;20484;-75
2022/10/27 11:14:06;;;;;;;1.60;0.90;;;22.10;96.50;;;;;;5072147;28;20464;-74
2022/10/27 11:16:36;;;;;;;1.60;0.90;;;22.20;95.90;;;;;;5059739;28;20889;-74
2022/10/27 11:19:06;;;;;;;1.60;0.90;;;22.20;95.20;;;;;;5067178;28;20695;-75
2022/10/27 11:21:40;;;;;;;1.60;0.90;;;22.20;95.70;;;;;;5056539;28;21032;-75
2022/10/27 11:24:14;;;;;;;1.57;0.90;;;22.30;95.40;;;;;;5071368;28;20462;-75
2022/10/27 11:26:50;;;;;;;1.60;0.93;;;22.50;95.60;;;;;;5058995;28;20491;-74
2022/10/27 11:29:23;;;;;;;1.57;0.90;;;22.40;95.50;;;;;;5069216;28;20545;-74
2022/10/27 11:32:02;;;;;;;1.60;0.90;;;22.40;94.70;;;;;;5050216;28;20572;-75
2022/10/27 11:34:39;;;;;;;1.53;0.90;;;22.50;94.30;;;;;;5069009;28;20492;-74
2022/10/27 11:37:24;;;;;;;1.60;0.90;;;22.40;94.10;;;;;;5056528;28;20465;-75
2022/10/27 11:40:01;;;;;;;1.60;0.90;;;22.50;94.70;;;;;;5057990;28;20543;-75
2022/10/27 11:42:37;;;;;;;1.53;0.90;;;22.50;94.20;;;;;;5067218;28;20488;-75
2022/10/27 11:45:13;;;;;;;1.57;0.90;;;22.40;94.00;;;;;;5061961;28;21014;-75
2022/10/27 11:47:44;;;;;;;1.57;0.90;;;22.50;93.90;;;;;;5063723;28;20468;-75
2022/10/27 11:50:18;;;;;;;1.53;0.90;;;22.50;94.30;;;;;;5065507;28;20484;-76
2022/10/27 11:52:48;;;;;;;1.57;0.90;;;22.40;93.50;;;;;;5055551;28;20526;-76
2022/10/27 11:55:18;;;;;;;1.57;0.93;;;22.50;94.40;;;;;;5051210;28;20489;-75
2022/10/27 11:57:56;;;;;;;1.57;0.90;;;22.50;93.50;;;;;;5054957;28;20481;-74
2022/10/27 12:00:26;;;;;;;1.57;0.90;;;22.50;94.40;;;;;;5045577;28;20489;-75
2022/10/27 12:03:27;;;;;;;1.57;0.90;;;22.60;95.00;;;;;;5037232;28;20539;-76
2022/10/27 12:05:59;;;;;;;1.57;0.90;;;22.80;94.40;;;;;;5037058;28;20501;-75
2022/10/27 12:08:40;;;;;;;1.50;0.90;;;23.00;94.10;;;;;;5047972;28;20808;-76
2022/10/27 12:11:53;;;;;;;1.60;0.90;;;22.90;92.70;;;;;;5037692;28;20521;-75
2022/10/27 12:14:30;;;;;;;1.53;0.90;;;22.80;92.70;;;;;;5049975;28;20474;-74
2022/10/27 12:17:06;;;;;;;1.53;0.90;;;22.80;93.10;;;;;;5035075;28;20485;-74
2022/10/27 12:19:38;;;;;;;1.53;0.90;;;22.80;92.90;;;;;;5047337;28;20485;-75
2022/10/27 12:22:12;;;;;;;1.60;1.13;;;22.80;93.10;;;;;;5047644;28;20486;-74
2022/10/27 12:24:45;;;;;;;1.53;0.90;;;22.90;94.10;;;;;;5054852;28;20462;-74
2022/10/27 12:27:17;;;;;;;1.60;1.00;;;22.90;91.90;;;;;;5034212;28;20524;-73
2022/10/27 12:29:49;;;;;;;1.53;0.90;;;23.00;93.50;;;;;;5044348;28;21071;-74
2022/10/27 12:32:24;;;;;;;1.57;0.90;;;23.00;92.80;;;;;;5046980;28;20538;-74
2022/10/27 12:35:03;;;;;;;1.50;0.90;;;23.10;92.90;;;;;;5051686;28;20476;-74
2022/10/27 12:37:41;;;;;;;1.57;0.90;;;23.00;91.40;;;;;;5040936;28;20542;-75
2022/10/27 12:40:16;;;;;;;1.57;0.90;;;22.80;92.70;;;;;;5039082;28;20515;-74
2022/10/27 12:42:53;;;;;;;1.60;0.90;;;22.80;93.40;;;;;;5047831;28;20491;-74
2022/10/27 12:45:38;;;;;;;1.57;0.90;;;22.80;93.40;;;;;;5043612;28;20528;-75
2022/10/27 12:48:13;;;;;;;1.53;0.90;;;22.70;94.30;;;;;;5037471;28;20577;-73
2022/10/27 12:50:49;;;;;;;1.50;0.90;;;22.70;93.90;;;;;;5045545;28;21016;-74
2022/10/27 12:53:29;;;;;;;1.60;1.07;;;22.70;93.70;;;;;;5018763;28;20482;-74
2022/10/27 12:56:03;;;;;;;1.57;0.90;;;22.70;93.70;;;;;;5037285;28;20557;-76
2022/10/27 12:58:43;;;;;;;1.53;0.90;;;22.60;93.90;;;;;;5060838;28;20946;-76
2022/10/27 13:01:24;;;;;;;1.50;0.90;;;22.60;93.70;;;;;;5035403;28;20617;-75
2022/10/27 13:04:03;;;;;;;1.53;0.90;;;22.60;93.60;;;;;;5045123;28;20549;-75
2022/10/27 13:06:47;;;;;;;1.53;0.90;;;22.60;93.60;;;;;;5040198;28;21091;-75
2022/10/27 13:10:05;;;;;;;1.53;0.90;;;22.60;94.00;;;;;;5048856;28;20469;-74
2022/10/27 13:12:55;;;;;;;1.80;1.30;;;22.70;94.30;;;;;;4962714;28;20548;-75
2022/10/27 13:16:02;;;;;;;1.57;0.90;;;22.80;94.10;;;;;;4985191;28;20510;-74
2022/10/27 13:18:55;;;;;;;1.60;0.90;;;22.80;94.30;;;;;;4952149;28;20499;-75
2022/10/27 13:21:26;;;;;;;1.57;0.90;;;22.80;94.20;;;;;;5026003;28;20512;-75
2022/10/27 13:24:05;;;;;;;1.57;0.90;;;22.90;93.70;;;;;;5053079;28;20976;-75
2022/10/27 13:26:38;;;;;;;1.53;0.90;;;22.90;94.50;;;;;;5034422;28;20482;-74
2022/10/27 13:29:15;;;;;;;1.53;0.90;;;22.90;93.80;;;;;;5035661;28;20479;-73
2022/10/27 13:31:42;;;;;;;1.53;0.80;;;22.90;94.90;;;;;;5032318;28;20477;-73
2022/10/27 13:34:20;;;;;;;1.57;0.90;;;22.90;94.80;;;;;;5054574;28;20454;-74
2022/10/27 13:36:48;;;;;;;1.50;0.90;;;22.90;95.20;;;;;;5041230;28;20477;-73
2022/10/27 13:39:47;;;;;;;1.53;0.90;;;22.90;95.50;;;;;;5054024;28;20532;-74
2022/10/27 13:42:18;;;;;;;1.53;0.83;;;22.90;95.30;;;;;;5046742;28;20477;-74
2022/10/27 13:44:47;;;;;;;1.50;0.90;;;22.80;95.40;;;;;;5044085;28;20464;-75
2022/10/27 13:47:19;;;;;;;1.60;1.00;;;22.80;95.80;;;;;;5037132;28;20569;-75
2022/10/27 13:49:56;;;;;;;1.60;0.90;;;22.70;96.10;;;;;;5045958;28;20470;-75